Waco, Missouri
Current Conditions -  °F | °C
As of 8:14 AM on Tuesday 21 Oct 2014 (Local Time) from KJLN Reporting Station
Haze Haze  
Wind Chill: 50°   Ceiling: Unl
Heat Index: 50°   Visibility: 1mi
Dew Point: 50°   Wind: 5mph
Humidity: 100%   Direction: 170°S
Pressure: 30.12"   Gusts: NA
Location:  37.25°N, 94.6°W
Report Text: KJLN 211314Z 17004KT 1SM BR CLR 10/10 A3012 RMK AO2 T01000100
Loading
Personal Weather Stations






























Interactive Weather Map
Tropical Storm Tracking
New forecast layout! Learn more

10-Day Weather Forecast

Advertisements
Track Severe Weather on mobile